Allouez, Wisconsin
Current Conditions -  °F | °C
As of 9:53 AM on Thursday 18 Dec 2014 (Local Time) from KGRB Reporting Station
Overcast Overcast  
Wind Chill: 19°   Ceiling: 2000
Heat Index: 28°   Visibility: 10mi
Dew Point: 21°   Wind: 9mph
Humidity: 75%   Direction: 20°NNE
Pressure: 30.29"   Gusts: NA
Location:  44.48°N, 88.02°W
Report Text: KGRB 181553Z 02008KT 10SM OVC020 M02/M06 A3029 RMK AO2 SLP268 T10221061
Loading
Personal Weather Stations






























Interactive Weather Map New forecast layout! Learn more

10-Day Weather Forecast

Advertisements
Track Severe Weather on mobile